createdAt,value
2023-01-22T00:01:13.583Z,59.54
2023-01-22T00:04:00.134Z,59.18
2023-01-22T00:06:46.088Z,59.29
2023-01-22T00:09:32.047Z,58.98
2023-01-22T00:12:17.961Z,59.31
2023-01-22T00:15:04.277Z,58.85
2023-01-22T00:17:50.349Z,59.40
2023-01-22T00:20:36.166Z,59.12
2023-01-22T00:23:22.924Z,59.35
2023-01-22T00:26:14.068Z,58.78
2023-01-22T00:29:00.346Z,58.99
2023-01-22T00:31:46.754Z,59.42
2023-01-22T00:34:34.095Z,59.43
2023-01-22T00:37:20.395Z,59.32
2023-01-22T00:40:07.282Z,59.29
2023-01-22T00:42:53.192Z,59.42
2023-01-22T00:45:39.998Z,59.22
2023-01-22T00:48:25.924Z,59.18
2023-01-22T00:51:13.255Z,58.83
2023-01-22T00:53:59.254Z,59.16
2023-01-22T00:56:45.424Z,59.08
2023-01-22T00:59:31.228Z,58.86
2023-01-22T01:02:17.269Z,58.79
2023-01-22T01:05:03.714Z,58.88
2023-01-22T01:07:49.428Z,58.96
2023-01-22T01:10:35.374Z,58.97
2023-01-22T01:13:21.338Z,59.13
2023-01-22T01:16:11.195Z,58.80
2023-01-22T01:19:05.707Z,58.92
2023-01-22T01:21:51.437Z,59.06
2023-01-22T01:24:37.291Z,59.41
2023-01-22T01:27:23.050Z,58.81
2023-01-22T01:30:10.452Z,58.90
2023-01-22T01:32:56.509Z,58.86
2023-01-22T01:35:42.491Z,58.92
2023-01-22T01:38:28.350Z,58.98
2023-01-22T01:41:16.868Z,59.14
2023-01-22T01:44:16.124Z,59.23
2023-01-22T01:47:07.679Z,59.20
2023-01-22T01:49:53.681Z,58.87
2023-01-22T01:52:39.965Z,59.44
2023-01-22T01:55:28.719Z,59.48
2023-01-22T01:58:21.490Z,59.63
2023-01-22T02:01:17.666Z,59.15
2023-01-22T02:04:04.060Z,59.21
2023-01-22T02:06:50.212Z,59.29
2023-01-22T02:09:36.790Z,59.15
2023-01-22T02:12:22.833Z,59.15
2023-01-22T02:15:09.611Z,58.94
2023-01-22T02:17:55.649Z,59.39
2023-01-22T02:20:50.006Z,59.47
2023-01-22T02:23:35.722Z,59.74
2023-01-22T02:26:23.089Z,58.83
2023-01-22T02:29:11.189Z,59.14
2023-01-22T02:31:57.354Z,59.42
2023-01-22T02:34:43.034Z,59.11
2023-01-22T02:37:28.979Z,59.26
2023-01-22T02:40:15.410Z,59.35
2023-01-22T02:43:02.148Z,59.77
2023-01-22T02:45:48.175Z,59.50
2023-01-22T02:48:33.911Z,59.14
2023-01-22T02:51:19.899Z,59.60
2023-01-22T02:54:08.259Z,59.54
2023-01-22T02:56:54.171Z,59.68
2023-01-22T02:59:40.001Z,59.56
2023-01-22T03:02:28.964Z,59.67
2023-01-22T03:05:15.657Z,59.14
2023-01-22T03:08:01.657Z,59.59
2023-01-22T03:10:48.291Z,59.08
2023-01-22T03:13:52.832Z,59.53
2023-01-22T03:16:57.663Z,59.71
2023-01-22T03:20:02.411Z,59.37
2023-01-22T03:22:48.652Z,59.39
2023-01-22T03:25:34.966Z,59.07
2023-01-22T03:28:21.815Z,59.15
2023-01-22T03:31:15.073Z,59.63
2023-01-22T03:34:01.405Z,59.56
2023-01-22T03:36:48.455Z,59.23
2023-01-22T03:39:35.486Z,59.53
2023-01-22T03:42:25.297Z,59.37
2023-01-22T03:45:12.210Z,59.12
2023-01-22T03:47:58.977Z,59.06
2023-01-22T03:50:52.287Z,59.41
2023-01-22T03:53:39.583Z,59.25
2023-01-22T03:56:26.934Z,59.03
2023-01-22T03:59:18.154Z,59.36
2023-01-22T04:02:04.631Z,59.09
2023-01-22T04:04:56.585Z,59.25
2023-01-22T04:07:43.196Z,58.88
2023-01-22T04:10:30.077Z,59.34
2023-01-22T04:13:18.623Z,59.04
2023-01-22T04:16:07.803Z,59.40
2023-01-22T04:19:15.070Z,59.34
2023-01-22T04:22:27.738Z,59.24
2023-01-22T04:25:16.805Z,59.05
2023-01-22T04:28:05.594Z,59.24
2023-01-22T04:30:56.306Z,59.25
2023-01-22T04:34:03.596Z,59.79
2023-01-22T04:36:52.983Z,59.37
2023-01-22T04:39:44.307Z,59.48
2023-01-22T04:42:31.369Z,59.80
2023-01-22T04:45:19.798Z,59.55
2023-01-22T04:48:09.226Z,59.81
2023-01-22T04:50:58.270Z,59.40
2023-01-22T04:53:48.741Z,59.57
2023-01-22T04:56:36.493Z,59.64
2023-01-22T04:59:23.809Z,59.58
2023-01-22T05:02:10.935Z,59.21
2023-01-22T05:04:58.173Z,59.80
2023-01-22T05:07:45.389Z,59.61
2023-01-22T05:10:32.775Z,59.70
2023-01-22T05:13:21.333Z,59.58
2023-01-22T05:16:08.856Z,59.31
2023-01-22T05:18:56.307Z,59.54
2023-01-22T05:21:44.701Z,59.45
2023-01-22T05:24:36.093Z,59.17
2023-01-22T05:27:23.219Z,59.59
2023-01-22T05:30:20.965Z,59.15
2023-01-22T05:33:19.349Z,59.20
2023-01-22T05:36:09.593Z,59.23
2023-01-22T05:39:02.172Z,59.08
2023-01-22T05:41:49.858Z,59.46
2023-01-22T05:44:38.516Z,59.22
2023-01-22T05:47:25.952Z,59.73
2023-01-22T05:50:29.304Z,59.48
2023-01-22T05:53:24.789Z,59.60
2023-01-22T05:56:13.205Z,59.66
2023-01-22T05:59:01.481Z,59.34
2023-01-22T06:01:49.673Z,59.61
2023-01-22T06:04:37.380Z,59.54
2023-01-22T06:07:34.308Z,59.77
2023-01-22T06:10:22.193Z,59.21
2023-01-22T06:13:09.738Z,59.34
2023-01-22T06:15:57.459Z,59.50
2023-01-22T06:19:05.557Z,59.83
2023-01-22T06:22:09.961Z,59.50
2023-01-22T06:25:09.955Z,59.63
2023-01-22T06:28:27.593Z,59.93
2023-01-22T06:31:15.270Z,59.68
2023-01-22T06:34:02.687Z,59.97
2023-01-22T06:36:50.183Z,60.19
2023-01-22T06:39:38.790Z,59.91
2023-01-22T06:42:52.254Z,59.85
2023-01-22T06:45:39.655Z,59.43
2023-01-22T06:48:29.666Z,59.73
2023-01-22T06:51:18.200Z,59.78
2023-01-22T06:54:06.153Z,59.85
2023-01-22T06:56:55.041Z,60.18
2023-01-22T06:59:44.625Z,59.79
2023-01-22T07:02:31.986Z,60.05
2023-01-22T07:05:23.149Z,59.99
2023-01-22T07:08:18.306Z,60.05
2023-01-22T07:11:07.890Z,60.06
2023-01-22T07:13:55.302Z,60.04
2023-01-22T07:16:42.743Z,60.03
2023-01-22T07:19:30.269Z,60.11
2023-01-22T07:22:17.311Z,59.99
2023-01-22T07:25:05.285Z,60.06
2023-01-22T07:27:53.894Z,59.86
2023-01-22T07:30:43.746Z,60.10
2023-01-22T07:33:29.721Z,60.18
2023-01-22T07:36:15.531Z,59.82
2023-01-22T07:39:05.671Z,59.91
2023-01-22T07:41:51.544Z,60.39
2023-01-22T07:44:40.410Z,60.06
2023-01-22T07:47:26.337Z,59.75
2023-01-22T07:50:12.389Z,60.04
2023-01-22T07:52:58.336Z,60.12
2023-01-22T07:55:44.475Z,60.30
2023-01-22T07:58:30.603Z,60.18
2023-01-22T08:01:17.133Z,60.22
2023-01-22T08:04:03.362Z,60.31
2023-01-22T08:06:49.199Z,60.20
2023-01-22T08:09:36.247Z,60.15
2023-01-22T08:12:22.519Z,59.88
2023-01-22T08:15:09.296Z,59.92
2023-01-22T08:17:55.192Z,59.97
2023-01-22T08:20:41.093Z,60.37
2023-01-22T08:23:27.032Z,60.11
2023-01-22T08:26:13.252Z,60.41
2023-01-22T08:28:59.101Z,60.40
2023-01-22T08:31:44.870Z,60.17
2023-01-22T08:34:30.702Z,59.97
2023-01-22T08:37:16.436Z,60.37
2023-01-22T08:40:02.218Z,59.87
2023-01-22T08:42:52.557Z,59.91
2023-01-22T08:45:38.740Z,60.16
2023-01-22T08:48:24.651Z,59.89
2023-01-22T08:51:11.770Z,59.81
2023-01-22T08:53:57.679Z,59.93
2023-01-22T08:56:43.738Z,59.91
2023-01-22T08:59:31.121Z,60.38
2023-01-22T09:02:17.188Z,60.20
2023-01-22T09:05:03.062Z,60.33
2023-01-22T09:07:49.027Z,59.90
2023-01-22T09:10:34.841Z,60.33
2023-01-22T09:13:20.998Z,60.26
2023-01-22T09:16:10.946Z,60.50
2023-01-22T09:18:57.101Z,60.45
2023-01-22T09:21:43.018Z,59.96
2023-01-22T09:24:28.877Z,60.33
2023-01-22T09:27:14.738Z,60.45
2023-01-22T09:30:00.683Z,60.18
2023-01-22T09:32:46.555Z,60.25
2023-01-22T09:35:32.345Z,60.75
2023-01-22T09:38:21.023Z,60.66
2023-01-22T09:43:37.409Z,60.49
2023-01-22T09:46:48.248Z,61.00
2023-01-22T09:49:57.664Z,60.45
2023-01-22T09:52:43.904Z,60.20
2023-01-22T09:55:51.534Z,60.79
2023-01-22T09:58:37.535Z,60.59
2023-01-22T10:01:23.682Z,60.46
2023-01-22T10:04:22.088Z,60.20
2023-01-22T10:07:13.166Z,60.39
2023-01-22T10:10:07.065Z,60.23
2023-01-22T10:13:09.552Z,60.00
2023-01-22T10:15:56.510Z,60.01
2023-01-22T10:18:52.196Z,60.14
2023-01-22T10:21:43.961Z,60.00
2023-01-22T10:24:30.313Z,59.97
2023-01-22T10:27:17.776Z,59.46
2023-01-22T10:30:23.245Z,59.51
2023-01-22T10:33:17.204Z,59.66
2023-01-22T10:36:04.678Z,59.74
2023-01-22T10:38:50.870Z,59.30
2023-01-22T10:41:36.644Z,59.56
2023-01-22T10:44:25.445Z,59.40
2023-01-22T10:47:22.473Z,59.21
2023-01-22T10:50:16.342Z,59.03
2023-01-22T10:53:03.051Z,59.40
2023-01-22T10:55:58.181Z,59.12
2023-01-22T10:58:48.130Z,59.00
2023-01-22T11:01:37.980Z,59.02
2023-01-22T11:04:28.836Z,58.88
2023-01-22T11:07:20.132Z,59.06
2023-01-22T11:10:38.220Z,58.38
2023-01-22T11:14:05.694Z,58.39
2023-01-22T11:16:52.392Z,57.94
2023-01-22T11:19:47.843Z,58.15
2023-01-22T11:22:37.836Z,57.81
2023-01-22T11:25:23.877Z,58.33
2023-01-22T11:28:44.305Z,57.89
2023-01-22T11:31:42.549Z,57.24
2023-01-22T11:34:50.457Z,55.09
2023-01-22T11:38:10.477Z,57.19
2023-01-22T11:41:21.795Z,57.34
2023-01-22T11:44:22.052Z,57.18
2023-01-22T11:47:20.451Z,57.21
2023-01-22T11:50:09.573Z,56.21
2023-01-22T11:53:24.678Z,55.72
2023-01-22T11:56:32.109Z,56.93
2023-01-22T11:59:27.419Z,56.69
2023-01-22T12:02:32.191Z,56.72
2023-01-22T12:05:43.264Z,55.83
2023-01-22T12:08:47.575Z,56.76
2023-01-22T12:12:06.090Z,56.50
2023-01-22T12:15:01.202Z,56.50
2023-01-22T12:18:06.138Z,56.49
2023-01-22T12:21:07.233Z,54.47
2023-01-22T12:23:59.267Z,55.89
2023-01-22T12:26:52.425Z,55.80
2023-01-22T12:29:54.263Z,56.26
2023-01-22T12:32:43.262Z,55.69
2023-01-22T12:35:30.700Z,55.44
2023-01-22T12:38:42.548Z,55.11
2023-01-22T12:41:41.314Z,55.62
2023-01-22T12:44:36.149Z,54.84
2023-01-22T12:47:25.288Z,54.87
2023-01-22T12:50:20.769Z,53.21
2023-01-22T12:53:29.261Z,54.43
2023-01-22T12:56:15.189Z,55.02
2023-01-22T12:59:01.068Z,54.85
2023-01-22T13:01:46.991Z,54.48
2023-01-22T13:04:33.642Z,54.17
2023-01-22T13:07:22.648Z,54.19
2023-01-22T13:10:29.419Z,54.10
2023-01-22T13:13:40.412Z,52.39
2023-01-22T13:16:35.504Z,53.55
2023-01-22T13:19:24.565Z,52.83
2023-01-22T13:22:15.497Z,52.71
2023-01-22T13:25:01.314Z,52.85
2023-01-22T13:27:48.440Z,53.04
2023-01-22T13:30:34.922Z,52.69
2023-01-22T13:33:20.826Z,52.75
2023-01-22T13:36:11.122Z,52.58
2023-01-22T13:38:58.912Z,52.47
2023-01-22T13:41:44.873Z,52.45
2023-01-22T13:44:40.504Z,52.57
2023-01-22T13:47:32.986Z,53.33
2023-01-22T13:50:21.117Z,52.03
2023-01-22T13:53:06.839Z,51.35
2023-01-22T13:55:52.921Z,50.43
2023-01-22T13:58:48.371Z,50.09
2023-01-22T14:01:37.115Z,49.82
2023-01-22T14:04:34.782Z,49.84
2023-01-22T14:07:36.519Z,50.00
2023-01-22T14:10:24.637Z,50.56
2023-01-22T14:13:13.447Z,50.71
2023-01-22T14:16:02.046Z,50.61
2023-01-22T14:18:48.051Z,50.61
2023-01-22T14:21:34.440Z,50.74
2023-01-22T14:24:20.357Z,50.99
2023-01-22T14:27:07.170Z,51.19
2023-01-22T14:29:53.954Z,50.96
2023-01-22T14:32:40.793Z,51.12
2023-01-22T14:35:27.127Z,51.02
2023-01-22T14:38:13.289Z,50.91
2023-01-22T14:40:59.259Z,51.08
2023-01-22T14:43:45.028Z,50.83
2023-01-22T14:46:30.854Z,50.92
2023-01-22T14:49:16.757Z,50.82
2023-01-22T14:52:03.034Z,50.96
2023-01-22T14:54:50.564Z,51.04
2023-01-22T14:57:36.669Z,50.84
2023-01-22T15:00:22.755Z,51.28
2023-01-22T15:03:08.632Z,51.00
2023-01-22T15:05:54.431Z,51.21
2023-01-22T15:08:40.552Z,50.90
2023-01-22T15:11:26.522Z,51.23
2023-01-22T15:14:12.542Z,51.22
2023-01-22T15:16:58.430Z,51.31
2023-01-22T15:19:44.273Z,51.20
2023-01-22T15:22:30.108Z,51.15
2023-01-22T15:25:16.122Z,51.16
2023-01-22T15:28:02.983Z,51.44
2023-01-22T15:30:50.827Z,51.06
2023-01-22T15:33:37.817Z,51.28
2023-01-22T15:36:24.307Z,51.28
2023-01-22T15:39:10.135Z,51.46
2023-01-22T15:41:56.125Z,51.58
2023-01-22T15:44:42.152Z,51.41
2023-01-22T15:47:27.862Z,50.96
2023-01-22T15:50:20.225Z,51.19
2023-01-22T15:53:06.076Z,51.30
2023-01-22T15:55:51.757Z,51.45
2023-01-22T15:58:37.759Z,51.56
2023-01-22T16:01:25.742Z,51.54
2023-01-22T16:04:11.498Z,51.23
2023-01-22T16:06:57.344Z,51.30
2023-01-22T16:09:43.289Z,51.84
2023-01-22T16:12:31.177Z,51.24
2023-01-22T16:15:17.492Z,51.50
2023-01-22T16:18:03.804Z,51.20
2023-01-22T16:20:49.703Z,51.88
2023-01-22T16:23:39.992Z,51.64
2023-01-22T16:26:29.371Z,51.30
2023-01-22T16:29:15.606Z,52.12
2023-01-22T16:32:01.536Z,51.73
2023-01-22T16:34:47.475Z,51.79
2023-01-22T16:37:33.338Z,51.97
2023-01-22T16:40:19.370Z,51.91
2023-01-22T16:43:05.751Z,51.83
2023-01-22T16:45:51.778Z,51.86
2023-01-22T16:48:37.744Z,51.70
2023-01-22T16:51:25.156Z,52.09
2023-01-22T16:54:31.872Z,52.00
2023-01-22T16:57:19.384Z,51.50
2023-01-22T17:00:06.120Z,51.88
2023-01-22T17:02:52.439Z,51.76
2023-01-22T17:05:38.038Z,51.72
2023-01-22T17:08:24.408Z,52.02
2023-01-22T17:11:15.682Z,52.22
2023-01-22T17:14:01.812Z,51.95
2023-01-22T17:16:48.511Z,51.90
2023-01-22T17:19:35.948Z,51.98
2023-01-22T17:22:21.833Z,51.98
2023-01-22T17:25:08.327Z,52.39
2023-01-22T17:27:54.499Z,52.04
2023-01-22T17:30:40.407Z,52.06
2023-01-22T17:33:26.755Z,52.25
2023-01-22T17:36:15.572Z,52.01
2023-01-22T17:39:01.796Z,52.56
2023-01-22T17:41:47.757Z,52.13
2023-01-22T17:44:34.942Z,52.25
2023-01-22T17:47:21.313Z,52.21
2023-01-22T17:50:08.835Z,52.47
2023-01-22T17:52:55.879Z,52.25
2023-01-22T17:55:41.617Z,52.61
2023-01-22T17:58:27.423Z,52.29
2023-01-22T18:01:15.165Z,52.51
2023-01-22T18:04:03.554Z,52.43
2023-01-22T18:06:50.055Z,52.35
2023-01-22T18:09:36.248Z,52.48
2023-01-22T18:12:22.190Z,52.44
2023-01-22T18:15:08.412Z,52.57
2023-01-22T18:17:54.258Z,52.36
2023-01-22T18:20:44.314Z,52.32
2023-01-22T18:23:30.397Z,52.44
2023-01-22T18:26:19.867Z,52.64
2023-01-22T18:29:06.259Z,52.80
2023-01-22T18:31:52.435Z,52.48
2023-01-22T18:34:38.663Z,52.83
2023-01-22T18:37:24.455Z,52.66
2023-01-22T18:40:10.849Z,52.64
2023-01-22T18:42:57.349Z,52.39
2023-01-22T18:45:43.519Z,52.45
2023-01-22T18:48:29.480Z,52.74
2023-01-22T18:51:15.489Z,52.34
2023-01-22T18:54:03.012Z,52.59
2023-01-22T18:56:49.745Z,52.35
2023-01-22T18:59:35.995Z,52.45
2023-01-22T19:02:22.111Z,52.61
2023-01-22T19:05:08.513Z,53.33
2023-01-22T19:07:54.781Z,52.86
2023-01-22T19:10:40.709Z,52.85
2023-01-22T19:13:26.483Z,52.86
2023-01-22T19:16:14.940Z,52.92
2023-01-22T19:19:03.931Z,53.21
2023-01-22T19:21:54.796Z,53.18
2023-01-22T19:24:40.894Z,53.30
2023-01-22T19:27:26.731Z,52.68
2023-01-22T19:30:12.811Z,53.40
2023-01-22T19:32:58.884Z,53.09
2023-01-22T19:35:49.245Z,53.20
2023-01-22T19:38:35.294Z,53.05
2023-01-22T19:41:23.343Z,53.56
2023-01-22T19:44:10.911Z,53.50
2023-01-22T19:46:57.473Z,53.62
2023-01-22T19:49:43.874Z,53.07
2023-01-22T19:52:29.950Z,53.57
2023-01-22T19:55:18.451Z,53.38
2023-01-22T19:58:05.000Z,53.70
2023-01-22T20:00:51.540Z,53.43
2023-01-22T20:03:37.768Z,54.28
2023-01-22T20:06:24.049Z,53.90
2023-01-22T20:09:11.363Z,53.73
2023-01-22T20:11:58.273Z,53.54
2023-01-22T20:14:44.503Z,53.82
2023-01-22T20:17:30.602Z,53.80
2023-01-22T20:20:16.663Z,54.05
2023-01-22T20:23:02.944Z,54.00
2023-01-22T20:25:50.190Z,53.90
2023-01-22T20:28:36.639Z,53.53
2023-01-22T20:31:23.629Z,53.84
2023-01-22T20:34:09.920Z,53.64
2023-01-22T20:36:56.096Z,53.89
2023-01-22T20:39:41.945Z,53.58
2023-01-22T20:42:28.416Z,53.94
2023-01-22T20:45:14.720Z,54.21
2023-01-22T20:48:00.662Z,55.38
2023-01-22T20:50:46.363Z,55.80
2023-01-22T20:53:32.062Z,55.91
2023-01-22T20:56:25.425Z,56.28
2023-01-22T20:59:17.081Z,55.96
2023-01-22T21:02:03.059Z,55.85
2023-01-22T21:04:53.265Z,56.19
2023-01-22T21:07:39.621Z,55.11
2023-01-22T21:10:25.455Z,55.30
2023-01-22T21:13:12.665Z,55.32
2023-01-22T21:16:07.005Z,54.72
2023-01-22T21:18:55.044Z,55.24
2023-01-22T21:21:40.879Z,55.09
2023-01-22T21:24:27.726Z,54.80
2023-01-22T21:27:13.492Z,54.82
2023-01-22T21:29:59.309Z,54.09
2023-01-22T21:32:45.205Z,54.61
2023-01-22T21:35:31.223Z,53.65
2023-01-22T21:38:17.201Z,53.66
2023-01-22T21:41:07.796Z,54.51
2023-01-22T21:44:12.759Z,54.08
2023-01-22T21:46:59.212Z,53.66
2023-01-22T21:49:47.025Z,54.08
2023-01-22T21:52:33.266Z,54.03
2023-01-22T21:55:21.238Z,54.26
2023-01-22T21:58:08.942Z,54.36
2023-01-22T22:00:55.824Z,54.01
2023-01-22T22:03:42.064Z,54.27
2023-01-22T22:06:32.246Z,54.58
2023-01-22T22:09:21.933Z,54.81
2023-01-22T22:12:07.960Z,54.97
2023-01-22T22:14:53.803Z,54.72
2023-01-22T22:17:39.708Z,54.64
2023-01-22T22:20:25.560Z,55.24
2023-01-22T22:23:11.436Z,54.94
2023-01-22T22:25:57.834Z,54.71
2023-01-22T22:28:43.809Z,55.10
2023-01-22T22:31:29.685Z,55.26
2023-01-22T22:34:15.546Z,55.12
2023-01-22T22:37:01.534Z,54.83
2023-01-22T22:39:47.527Z,54.60
2023-01-22T22:42:33.796Z,54.90
2023-01-22T22:45:19.664Z,54.79
2023-01-22T22:48:05.777Z,54.41
2023-01-22T22:50:51.821Z,54.41
2023-01-22T22:53:37.635Z,54.25
2023-01-22T22:56:23.756Z,55.37
2023-01-22T22:59:10.025Z,54.95
2023-01-22T23:01:55.990Z,54.88
2023-01-22T23:04:41.905Z,54.97
2023-01-22T23:07:27.774Z,54.72
2023-01-22T23:10:28.810Z,55.03
2023-01-22T23:13:15.007Z,54.45
2023-01-22T23:16:02.974Z,55.28
2023-01-22T23:18:51.357Z,54.56
2023-01-22T23:21:41.012Z,55.02
2023-01-22T23:24:27.918Z,54.84
2023-01-22T23:27:14.224Z,54.78
2023-01-22T23:30:00.013Z,54.76
2023-01-22T23:32:45.780Z,54.26
2023-01-22T23:35:31.560Z,54.67
2023-01-22T23:38:17.249Z,54.53
2023-01-22T23:41:05.077Z,54.92
2023-01-22T23:43:51.358Z,55.00
2023-01-22T23:46:37.661Z,54.75
2023-01-22T23:49:23.850Z,54.03
2023-01-22T23:52:09.761Z,54.51
2023-01-22T23:54:57.999Z,54.45
2023-01-22T23:57:44.122Z,54.99
